sensor_id;sensor_type;location;lat;lon;timestamp;temperature;humidity
10123;DHT22;5101;49.038;8.710;2023-12-20T00:00:13;7.30;99.90
10123;DHT22;5101;49.038;8.710;2023-12-20T00:02:39;7.30;99.90
10123;DHT22;5101;49.038;8.710;2023-12-20T00:05:05;7.20;99.90
10123;DHT22;5101;49.038;8.710;2023-12-20T00:07:30;7.20;99.90
10123;DHT22;5101;49.038;8.710;2023-12-20T00:09:56;7.20;99.90
10123;DHT22;5101;49.038;8.710;2023-12-20T00:12:22;7.20;99.90
10123;DHT22;5101;49.038;8.710;2023-12-20T00:14:48;7.10;99.90
10123;DHT22;5101;49.038;8.710;2023-12-20T00:17:13;7.10;99.90
10123;DHT22;5101;49.038;8.710;2023-12-20T00:19:39;7.10;99.90
10123;DHT22;5101;49.038;8.710;2023-12-20T00:22:04;7.00;99.90
10123;DHT22;5101;49.038;8.710;2023-12-20T00:24:30;7.00;99.90
10123;DHT22;5101;49.038;8.710;2023-12-20T00:26:55;7.00;99.90
10123;DHT22;5101;49.038;8.710;2023-12-20T00:29:20;7.00;99.90
10123;DHT22;5101;49.038;8.710;2023-12-20T00:31:46;7.00;99.90
10123;DHT22;5101;49.038;8.710;2023-12-20T00:34:11;7.00;99.90
10123;DHT22;5101;49.038;8.710;2023-12-20T00:36:37;7.00;99.90
10123;DHT22;5101;49.038;8.710;2023-12-20T00:39:02;6.90;99.90
10123;DHT22;5101;49.038;8.710;2023-12-20T00:41:28;7.00;99.90
10123;DHT22;5101;49.038;8.710;2023-12-20T00:43:54;6.90;99.90
10123;DHT22;5101;49.038;8.710;2023-12-20T00:46:19;6.90;99.90
10123;DHT22;5101;49.038;8.710;2023-12-20T00:48:45;6.90;99.90
10123;DHT22;5101;49.038;8.710;2023-12-20T00:51:11;6.80;99.90
10123;DHT22;5101;49.038;8.710;2023-12-20T00:53:36;6.80;99.90
10123;DHT22;5101;49.038;8.710;2023-12-20T00:56:02;6.80;99.90
10123;DHT22;5101;49.038;8.710;2023-12-20T00:58:28;6.80;99.90
10123;DHT22;5101;49.038;8.710;2023-12-20T01:00:53;6.70;99.90
10123;DHT22;5101;49.038;8.710;2023-12-20T01:03:19;6.70;99.90
10123;DHT22;5101;49.038;8.710;2023-12-20T01:05:44;6.70;99.90
10123;DHT22;5101;49.038;8.710;2023-12-20T01:08:10;6.70;99.90
10123;DHT22;5101;49.038;8.710;2023-12-20T01:10:35;6.70;99.90
10123;DHT22;5101;49.038;8.710;2023-12-20T01:13:01;6.80;99.90
10123;DHT22;5101;49.038;8.710;2023-12-20T01:15:26;6.70;99.90
10123;DHT22;5101;49.038;8.710;2023-12-20T01:17:52;6.80;99.90
10123;DHT22;5101;49.038;8.710;2023-12-20T01:20:17;6.70;99.90
10123;DHT22;5101;49.038;8.710;2023-12-20T01:22:45;6.70;99.90
10123;DHT22;5101;49.038;8.710;2023-12-20T01:25:11;6.60;99.90
10123;DHT22;5101;49.038;8.710;2023-12-20T01:27:37;6.70;99.90
10123;DHT22;5101;49.038;8.710;2023-12-20T01:30:02;6.60;99.90
10123;DHT22;5101;49.038;8.710;2023-12-20T01:32:28;6.60;99.90
10123;DHT22;5101;49.038;8.710;2023-12-20T01:34:53;6.60;99.90
10123;DHT22;5101;49.038;8.710;2023-12-20T01:37:19;6.60;99.90
10123;DHT22;5101;49.038;8.710;2023-12-20T01:39:44;6.70;99.90
10123;DHT22;5101;49.038;8.710;2023-12-20T01:42:10;6.60;99.90
10123;DHT22;5101;49.038;8.710;2023-12-20T01:44:35;6.70;99.90
10123;DHT22;5101;49.038;8.710;2023-12-20T01:47:01;6.70;99.90
10123;DHT22;5101;49.038;8.710;2023-12-20T01:49:27;6.70;99.90
10123;DHT22;5101;49.038;8.710;2023-12-20T01:51:53;6.60;99.90
10123;DHT22;5101;49.038;8.710;2023-12-20T01:54:19;6.70;99.90
10123;DHT22;5101;49.038;8.710;2023-12-20T01:56:45;6.70;99.90
10123;DHT22;5101;49.038;8.710;2023-12-20T01:59:11;6.70;99.90
10123;DHT22;5101;49.038;8.710;2023-12-20T02:01:37;6.70;99.90
10123;DHT22;5101;49.038;8.710;2023-12-20T02:04:04;6.70;99.90
10123;DHT22;5101;49.038;8.710;2023-12-20T02:06:30;6.70;99.90
10123;DHT22;5101;49.038;8.710;2023-12-20T02:08:59;6.70;99.90
10123;DHT22;5101;49.038;8.710;2023-12-20T02:11:25;6.70;99.90
10123;DHT22;5101;49.038;8.710;2023-12-20T02:13:51;6.70;99.90
10123;DHT22;5101;49.038;8.710;2023-12-20T02:16:16;6.70;99.90
10123;DHT22;5101;49.038;8.710;2023-12-20T02:18:43;6.80;99.90
10123;DHT22;5101;49.038;8.710;2023-12-20T02:21:09;6.70;99.90
10123;DHT22;5101;49.038;8.710;2023-12-20T02:23:35;6.70;99.90
10123;DHT22;5101;49.038;8.710;2023-12-20T02:26:01;6.70;99.90
10123;DHT22;5101;49.038;8.710;2023-12-20T02:28:26;6.70;99.90
10123;DHT22;5101;49.038;8.710;2023-12-20T02:30:52;6.80;99.90
10123;DHT22;5101;49.038;8.710;2023-12-20T02:33:18;6.70;99.90
10123;DHT22;5101;49.038;8.710;2023-12-20T02:35:43;6.80;99.90
10123;DHT22;5101;49.038;8.710;2023-12-20T02:38:09;6.80;99.90
10123;DHT22;5101;49.038;8.710;2023-12-20T02:40:34;6.80;99.90
10123;DHT22;5101;49.038;8.710;2023-12-20T02:43:00;6.80;99.90
10123;DHT22;5101;49.038;8.710;2023-12-20T02:45:26;6.80;99.90
10123;DHT22;5101;49.038;8.710;2023-12-20T02:47:52;6.80;99.90
10123;DHT22;5101;49.038;8.710;2023-12-20T02:50:17;6.80;99.90
10123;DHT22;5101;49.038;8.710;2023-12-20T02:52:45;6.80;99.90
10123;DHT22;5101;49.038;8.710;2023-12-20T02:55:10;6.80;99.90
10123;DHT22;5101;49.038;8.710;2023-12-20T02:57:36;6.80;99.90
10123;DHT22;5101;49.038;8.710;2023-12-20T03:00:09;6.80;99.90
10123;DHT22;5101;49.038;8.710;2023-12-20T03:02:36;6.80;99.90
10123;DHT22;5101;49.038;8.710;2023-12-20T03:05:02;6.80;99.90
10123;DHT22;5101;49.038;8.710;2023-12-20T03:07:28;6.80;99.90
10123;DHT22;5101;49.038;8.710;2023-12-20T03:09:54;6.80;99.90
10123;DHT22;5101;49.038;8.710;2023-12-20T03:12:19;6.80;99.90
10123;DHT22;5101;49.038;8.710;2023-12-20T03:14:45;6.80;99.90
10123;DHT22;5101;49.038;8.710;2023-12-20T03:17:10;6.80;99.90
10123;DHT22;5101;49.038;8.710;2023-12-20T03:19:36;6.80;99.90
10123;DHT22;5101;49.038;8.710;2023-12-20T03:22:01;6.90;99.90
10123;DHT22;5101;49.038;8.710;2023-12-20T03:24:27;6.80;99.90
10123;DHT22;5101;49.038;8.710;2023-12-20T03:26:53;6.80;99.90
10123;DHT22;5101;49.038;8.710;2023-12-20T03:29:18;6.80;99.90
10123;DHT22;5101;49.038;8.710;2023-12-20T03:31:44;6.80;99.90
10123;DHT22;5101;49.038;8.710;2023-12-20T03:34:11;6.80;99.90
10123;DHT22;5101;49.038;8.710;2023-12-20T03:36:36;6.70;99.90
10123;DHT22;5101;49.038;8.710;2023-12-20T03:39:02;6.80;99.90
10123;DHT22;5101;49.038;8.710;2023-12-20T03:41:28;6.80;99.90
10123;DHT22;5101;49.038;8.710;2023-12-20T03:43:53;6.70;99.90
10123;DHT22;5101;49.038;8.710;2023-12-20T03:46:19;6.70;99.90
10123;DHT22;5101;49.038;8.710;2023-12-20T03:48:44;6.80;99.90
10123;DHT22;5101;49.038;8.710;2023-12-20T03:51:10;6.80;99.90
10123;DHT22;5101;49.038;8.710;2023-12-20T03:53:35;6.80;99.90
10123;DHT22;5101;49.038;8.710;2023-12-20T03:56:01;6.80;99.90
10123;DHT22;5101;49.038;8.710;2023-12-20T03:58:26;6.70;99.90
10123;DHT22;5101;49.038;8.710;2023-12-20T04:00:52;6.70;99.90
10123;DHT22;5101;49.038;8.710;2023-12-20T04:03:17;6.70;99.90
10123;DHT22;5101;49.038;8.710;2023-12-20T04:05:43;6.70;99.90
10123;DHT22;5101;49.038;8.710;2023-12-20T04:08:09;6.70;99.90
10123;DHT22;5101;49.038;8.710;2023-12-20T04:10:35;6.80;99.90
10123;DHT22;5101;49.038;8.710;2023-12-20T04:13:00;6.80;99.90
10123;DHT22;5101;49.038;8.710;2023-12-20T04:15:25;6.70;99.90
10123;DHT22;5101;49.038;8.710;2023-12-20T04:17:51;6.70;99.90
10123;DHT22;5101;49.038;8.710;2023-12-20T04:20:16;6.80;99.90
10123;DHT22;5101;49.038;8.710;2023-12-20T04:22:42;6.70;99.90
10123;DHT22;5101;49.038;8.710;2023-12-20T04:25:08;6.80;99.90
10123;DHT22;5101;49.038;8.710;2023-12-20T04:27:33;6.80;99.90
10123;DHT22;5101;49.038;8.710;2023-12-20T04:29:59;6.90;99.90
10123;DHT22;5101;49.038;8.710;2023-12-20T04:32:24;6.80;99.90
10123;DHT22;5101;49.038;8.710;2023-12-20T04:34:50;6.80;99.90
10123;DHT22;5101;49.038;8.710;2023-12-20T04:37:15;6.90;99.90
10123;DHT22;5101;49.038;8.710;2023-12-20T04:39:41;6.80;99.90
10123;DHT22;5101;49.038;8.710;2023-12-20T04:42:07;6.90;99.90
10123;DHT22;5101;49.038;8.710;2023-12-20T04:44:32;6.80;99.90
10123;DHT22;5101;49.038;8.710;2023-12-20T04:46:58;6.80;99.90
10123;DHT22;5101;49.038;8.710;2023-12-20T04:49:23;6.80;99.90
10123;DHT22;5101;49.038;8.710;2023-12-20T04:51:49;6.80;99.90
10123;DHT22;5101;49.038;8.710;2023-12-20T04:54:14;6.80;99.90
10123;DHT22;5101;49.038;8.710;2023-12-20T04:56:41;6.90;99.90
10123;DHT22;5101;49.038;8.710;2023-12-20T04:59:06;6.80;99.90
10123;DHT22;5101;49.038;8.710;2023-12-20T05:01:32;6.80;99.90
10123;DHT22;5101;49.038;8.710;2023-12-20T05:03:57;6.80;99.90
10123;DHT22;5101;49.038;8.710;2023-12-20T05:06:23;6.80;99.90
10123;DHT22;5101;49.038;8.710;2023-12-20T05:08:50;6.80;99.90
10123;DHT22;5101;49.038;8.710;2023-12-20T05:11:15;6.80;99.90
10123;DHT22;5101;49.038;8.710;2023-12-20T05:13:41;6.70;99.90
10123;DHT22;5101;49.038;8.710;2023-12-20T05:16:07;6.80;99.90
10123;DHT22;5101;49.038;8.710;2023-12-20T05:18:34;6.90;99.90
10123;DHT22;5101;49.038;8.710;2023-12-20T05:20:59;6.80;99.90
10123;DHT22;5101;49.038;8.710;2023-12-20T05:23:25;6.80;99.90
10123;DHT22;5101;49.038;8.710;2023-12-20T05:25:50;6.70;99.90
10123;DHT22;5101;49.038;8.710;2023-12-20T05:28:16;6.70;99.90
10123;DHT22;5101;49.038;8.710;2023-12-20T05:30:42;6.70;99.90
10123;DHT22;5101;49.038;8.710;2023-12-20T05:33:08;6.90;99.90
10123;DHT22;5101;49.038;8.710;2023-12-20T05:35:34;6.80;99.90
10123;DHT22;5101;49.038;8.710;2023-12-20T05:38:00;6.90;99.90
10123;DHT22;5101;49.038;8.710;2023-12-20T05:40:25;6.80;99.90
10123;DHT22;5101;49.038;8.710;2023-12-20T05:42:51;6.80;99.90
10123;DHT22;5101;49.038;8.710;2023-12-20T05:45:16;6.80;99.90
10123;DHT22;5101;49.038;8.710;2023-12-20T05:47:42;6.80;99.90
10123;DHT22;5101;49.038;8.710;2023-12-20T05:50:08;6.80;99.90
10123;DHT22;5101;49.038;8.710;2023-12-20T05:52:34;6.80;99.90
10123;DHT22;5101;49.038;8.710;2023-12-20T05:54:59;6.70;99.90
10123;DHT22;5101;49.038;8.710;2023-12-20T05:57:27;6.70;99.90
10123;DHT22;5101;49.038;8.710;2023-12-20T05:59:52;6.80;99.90
10123;DHT22;5101;49.038;8.710;2023-12-20T06:02:18;6.80;99.90
10123;DHT22;5101;49.038;8.710;2023-12-20T06:04:43;6.80;99.90
10123;DHT22;5101;49.038;8.710;2023-12-20T06:07:11;6.80;99.90
10123;DHT22;5101;49.038;8.710;2023-12-20T06:09:37;6.90;99.90
10123;DHT22;5101;49.038;8.710;2023-12-20T06:12:03;6.80;99.90
10123;DHT22;5101;49.038;8.710;2023-12-20T06:14:28;6.80;99.90
10123;DHT22;5101;49.038;8.710;2023-12-20T06:16:55;6.80;99.90
10123;DHT22;5101;49.038;8.710;2023-12-20T06:19:21;6.80;99.90
10123;DHT22;5101;49.038;8.710;2023-12-20T06:21:46;6.80;99.90
10123;DHT22;5101;49.038;8.710;2023-12-20T06:24:12;6.90;99.90
10123;DHT22;5101;49.038;8.710;2023-12-20T06:26:37;6.80;99.90
10123;DHT22;5101;49.038;8.710;2023-12-20T06:29:03;6.90;99.90
10123;DHT22;5101;49.038;8.710;2023-12-20T06:31:28;6.80;99.90
10123;DHT22;5101;49.038;8.710;2023-12-20T06:33:54;6.80;99.90
10123;DHT22;5101;49.038;8.710;2023-12-20T06:36:23;6.90;99.90
10123;DHT22;5101;49.038;8.710;2023-12-20T06:38:49;6.90;99.90
10123;DHT22;5101;49.038;8.710;2023-12-20T06:41:15;6.90;99.90
10123;DHT22;5101;49.038;8.710;2023-12-20T06:43:42;6.90;99.90
10123;DHT22;5101;49.038;8.710;2023-12-20T06:46:07;6.90;99.90
10123;DHT22;5101;49.038;8.710;2023-12-20T06:48:33;6.90;99.90
10123;DHT22;5101;49.038;8.710;2023-12-20T06:51:00;6.90;99.90
10123;DHT22;5101;49.038;8.710;2023-12-20T06:53:27;6.90;99.90
10123;DHT22;5101;49.038;8.710;2023-12-20T06:55:52;6.90;99.90
10123;DHT22;5101;49.038;8.710;2023-12-20T06:58:18;6.90;99.90
10123;DHT22;5101;49.038;8.710;2023-12-20T07:00:44;6.90;99.90
10123;DHT22;5101;49.038;8.710;2023-12-20T07:03:09;6.90;99.90
10123;DHT22;5101;49.038;8.710;2023-12-20T07:05:35;6.90;99.90
10123;DHT22;5101;49.038;8.710;2023-12-20T07:08:00;6.90;99.90
10123;DHT22;5101;49.038;8.710;2023-12-20T07:10:26;7.00;99.90
10123;DHT22;5101;49.038;8.710;2023-12-20T07:12:51;6.90;99.90
10123;DHT22;5101;49.038;8.710;2023-12-20T07:15:17;6.90;99.90
10123;DHT22;5101;49.038;8.710;2023-12-20T07:17:43;6.90;99.90
10123;DHT22;5101;49.038;8.710;2023-12-20T07:20:09;6.90;99.90
10123;DHT22;5101;49.038;8.710;2023-12-20T07:22:36;6.80;99.90
10123;DHT22;5101;49.038;8.710;2023-12-20T07:25:01;6.80;99.90
10123;DHT22;5101;49.038;8.710;2023-12-20T07:27:27;6.80;99.90
10123;DHT22;5101;49.038;8.710;2023-12-20T07:29:52;6.80;99.90
10123;DHT22;5101;49.038;8.710;2023-12-20T07:32:18;6.90;99.90
10123;DHT22;5101;49.038;8.710;2023-12-20T07:34:44;6.80;99.90
10123;DHT22;5101;49.038;8.710;2023-12-20T07:37:09;6.70;99.90
10123;DHT22;5101;49.038;8.710;2023-12-20T07:39:39;6.70;99.90
10123;DHT22;5101;49.038;8.710;2023-12-20T07:42:06;6.70;99.90
10123;DHT22;5101;49.038;8.710;2023-12-20T07:44:31;6.70;99.90
10123;DHT22;5101;49.038;8.710;2023-12-20T07:46:57;6.70;99.90
10123;DHT22;5101;49.038;8.710;2023-12-20T07:49:23;6.70;99.90
10123;DHT22;5101;49.038;8.710;2023-12-20T07:51:48;6.70;99.90
10123;DHT22;5101;49.038;8.710;2023-12-20T07:54:14;6.70;99.90
10123;DHT22;5101;49.038;8.710;2023-12-20T07:56:40;6.70;99.90
10123;DHT22;5101;49.038;8.710;2023-12-20T07:59:05;6.80;99.90
10123;DHT22;5101;49.038;8.710;2023-12-20T08:01:31;6.70;99.90
10123;DHT22;5101;49.038;8.710;2023-12-20T08:03:57;6.80;99.90
10123;DHT22;5101;49.038;8.710;2023-12-20T08:06:22;6.70;99.90
10123;DHT22;5101;49.038;8.710;2023-12-20T08:08:48;6.70;99.90
10123;DHT22;5101;49.038;8.710;2023-12-20T08:11:13;6.70;99.90
10123;DHT22;5101;49.038;8.710;2023-12-20T08:13:39;6.70;99.90
10123;DHT22;5101;49.038;8.710;2023-12-20T08:16:05;6.70;99.90
10123;DHT22;5101;49.038;8.710;2023-12-20T08:18:30;6.60;99.90
10123;DHT22;5101;49.038;8.710;2023-12-20T08:20:56;6.60;99.90
10123;DHT22;5101;49.038;8.710;2023-12-20T08:23:21;6.70;99.90
10123;DHT22;5101;49.038;8.710;2023-12-20T08:25:47;6.70;99.90
10123;DHT22;5101;49.038;8.710;2023-12-20T08:28:13;6.60;99.90
10123;DHT22;5101;49.038;8.710;2023-12-20T08:30:39;6.70;99.90
10123;DHT22;5101;49.038;8.710;2023-12-20T08:33:05;6.70;99.90
10123;DHT22;5101;49.038;8.710;2023-12-20T08:35:33;6.70;99.90
10123;DHT22;5101;49.038;8.710;2023-12-20T08:37:58;6.80;99.90
10123;DHT22;5101;49.038;8.710;2023-12-20T08:40:24;6.80;99.90
10123;DHT22;5101;49.038;8.710;2023-12-20T08:42:49;6.90;99.90
10123;DHT22;5101;49.038;8.710;2023-12-20T08:45:15;7.00;99.90
10123;DHT22;5101;49.038;8.710;2023-12-20T08:47:40;7.10;99.90
10123;DHT22;5101;49.038;8.710;2023-12-20T08:50:07;7.30;99.90
10123;DHT22;5101;49.038;8.710;2023-12-20T08:52:32;7.40;99.90
10123;DHT22;5101;49.038;8.710;2023-12-20T08:54:58;7.50;99.90
10123;DHT22;5101;49.038;8.710;2023-12-20T08:57:24;7.70;99.90
10123;DHT22;5101;49.038;8.710;2023-12-20T08:59:50;7.90;99.90
10123;DHT22;5101;49.038;8.710;2023-12-20T09:02:16;8.00;99.90
10123;DHT22;5101;49.038;8.710;2023-12-20T09:04:42;8.10;99.90
10123;DHT22;5101;49.038;8.710;2023-12-20T09:07:24;8.30;99.90
10123;DHT22;5101;49.038;8.710;2023-12-20T09:09:50;8.50;99.90
10123;DHT22;5101;49.038;8.710;2023-12-20T09:12:20;8.50;99.90
10123;DHT22;5101;49.038;8.710;2023-12-20T09:14:50;8.60;99.90
10123;DHT22;5101;49.038;8.710;2023-12-20T09:17:17;8.60;99.90
10123;DHT22;5101;49.038;8.710;2023-12-20T09:19:43;8.80;99.90
10123;DHT22;5101;49.038;8.710;2023-12-20T09:22:12;8.90;99.90
10123;DHT22;5101;49.038;8.710;2023-12-20T09:24:38;9.10;99.90
10123;DHT22;5101;49.038;8.710;2023-12-20T09:27:04;9.10;99.90
10123;DHT22;5101;49.038;8.710;2023-12-20T09:29:30;9.30;99.90
10123;DHT22;5101;49.038;8.710;2023-12-20T09:31:56;9.50;99.90
10123;DHT22;5101;49.038;8.710;2023-12-20T09:34:22;9.60;99.90
10123;DHT22;5101;49.038;8.710;2023-12-20T09:36:48;9.70;99.90
10123;DHT22;5101;49.038;8.710;2023-12-20T09:39:14;9.90;99.90
10123;DHT22;5101;49.038;8.710;2023-12-20T09:41:43;10.00;99.90
10123;DHT22;5101;49.038;8.710;2023-12-20T09:44:14;10.20;99.90
10123;DHT22;5101;49.038;8.710;2023-12-20T09:46:46;10.30;99.20
10123;DHT22;5101;49.038;8.710;2023-12-20T09:49:15;10.60;98.40
10123;DHT22;5101;49.038;8.710;2023-12-20T09:51:42;10.60;97.80
10123;DHT22;5101;49.038;8.710;2023-12-20T09:54:08;10.60;97.20
10123;DHT22;5101;49.038;8.710;2023-12-20T09:56:35;10.60;96.80
10123;DHT22;5101;49.038;8.710;2023-12-20T09:59:00;10.80;96.60
10123;DHT22;5101;49.038;8.710;2023-12-20T10:01:27;10.90;96.10
10123;DHT22;5101;49.038;8.710;2023-12-20T10:03:54;11.00;95.70
10123;DHT22;5101;49.038;8.710;2023-12-20T10:06:21;11.10;95.40
10123;DHT22;5101;49.038;8.710;2023-12-20T10:08:46;11.20;94.90
10123;DHT22;5101;49.038;8.710;2023-12-20T10:11:12;11.30;94.80
10123;DHT22;5101;49.038;8.710;2023-12-20T10:13:41;11.40;93.40
10123;DHT22;5101;49.038;8.710;2023-12-20T10:16:07;11.30;93.40
10123;DHT22;5101;49.038;8.710;2023-12-20T10:18:33;11.30;93.30
10123;DHT22;5101;49.038;8.710;2023-12-20T10:20:59;11.30;93.10
10123;DHT22;5101;49.038;8.710;2023-12-20T10:23:25;11.30;92.10
10123;DHT22;5101;49.038;8.710;2023-12-20T10:25:57;11.40;91.00
10123;DHT22;5101;49.038;8.710;2023-12-20T10:28:23;11.20;91.40
10123;DHT22;5101;49.038;8.710;2023-12-20T10:30:53;10.90;91.70
10123;DHT22;5101;49.038;8.710;2023-12-20T10:33:29;10.90;91.70
10123;DHT22;5101;49.038;8.710;2023-12-20T10:35:55;10.80;91.90
10123;DHT22;5101;49.038;8.710;2023-12-20T10:38:21;10.50;92.20
10123;DHT22;5101;49.038;8.710;2023-12-20T10:40:47;10.30;92.40
10123;DHT22;5101;49.038;8.710;2023-12-20T10:43:13;10.30;92.70
10123;DHT22;5101;49.038;8.710;2023-12-20T10:45:41;10.10;93.30
10123;DHT22;5101;49.038;8.710;2023-12-20T10:48:10;10.10;93.30
10123;DHT22;5101;49.038;8.710;2023-12-20T10:50:36;9.90;94.00
10123;DHT22;5101;49.038;8.710;2023-12-20T10:53:04;9.70;94.50
10123;DHT22;5101;49.038;8.710;2023-12-20T10:55:29;9.80;94.80
10123;DHT22;5101;49.038;8.710;2023-12-20T10:58:03;9.60;94.90
10123;DHT22;5101;49.038;8.710;2023-12-20T11:00:32;9.40;95.20
10123;DHT22;5101;49.038;8.710;2023-12-20T11:03:00;9.20;95.70
10123;DHT22;5101;49.038;8.710;2023-12-20T11:05:49;9.00;96.20
10123;DHT22;5101;49.038;8.710;2023-12-20T11:11:07;8.70;97.10
10123;DHT22;5101;49.038;8.710;2023-12-20T11:13:40;8.80;97.70
10123;DHT22;5101;49.038;8.710;2023-12-20T11:16:08;8.60;97.50
10123;DHT22;5101;49.038;8.710;2023-12-20T11:18:34;8.50;98.00
10123;DHT22;5101;49.038;8.710;2023-12-20T11:21:04;8.40;98.20
10123;DHT22;5101;49.038;8.710;2023-12-20T11:23:31;8.40;98.60
10123;DHT22;5101;49.038;8.710;2023-12-20T11:25:59;8.30;98.80
10123;DHT22;5101;49.038;8.710;2023-12-20T11:28:26;8.20;99.10
10123;DHT22;5101;49.038;8.710;2023-12-20T11:30:53;8.20;99.50
10123;DHT22;5101;49.038;8.710;2023-12-20T11:33:23;8.20;99.70
10123;DHT22;5101;49.038;8.710;2023-12-20T11:35:49;8.20;99.90
10123;DHT22;5101;49.038;8.710;2023-12-20T11:38:15;8.10;99.90
10123;DHT22;5101;49.038;8.710;2023-12-20T11:40:43;8.20;99.90
10123;DHT22;5101;49.038;8.710;2023-12-20T11:43:09;8.20;99.90
10123;DHT22;5101;49.038;8.710;2023-12-20T11:45:35;8.30;99.90
10123;DHT22;5101;49.038;8.710;2023-12-20T11:48:02;8.20;99.90
10123;DHT22;5101;49.038;8.710;2023-12-20T11:50:28;8.20;99.90
10123;DHT22;5101;49.038;8.710;2023-12-20T11:52:55;8.10;99.90
10123;DHT22;5101;49.038;8.710;2023-12-20T11:55:24;8.20;99.90
10123;DHT22;5101;49.038;8.710;2023-12-20T11:57:50;8.20;99.90
10123;DHT22;5101;49.038;8.710;2023-12-20T12:00:16;8.20;99.90
10123;DHT22;5101;49.038;8.710;2023-12-20T12:02:42;8.10;99.90
10123;DHT22;5101;49.038;8.710;2023-12-20T12:05:08;8.00;99.90
10123;DHT22;5101;49.038;8.710;2023-12-20T12:07:34;8.00;99.90
10123;DHT22;5101;49.038;8.710;2023-12-20T12:10:00;8.00;99.90
10123;DHT22;5101;49.038;8.710;2023-12-20T12:12:26;7.90;99.90
10123;DHT22;5101;49.038;8.710;2023-12-20T12:14:53;7.90;99.90
10123;DHT22;5101;49.038;8.710;2023-12-20T12:17:19;7.90;99.90
10123;DHT22;5101;49.038;8.710;2023-12-20T12:19:45;7.80;99.90
10123;DHT22;5101;49.038;8.710;2023-12-20T12:22:12;7.80;99.90
10123;DHT22;5101;49.038;8.710;2023-12-20T12:24:46;7.70;99.90
10123;DHT22;5101;49.038;8.710;2023-12-20T12:27:13;7.80;99.90
10123;DHT22;5101;49.038;8.710;2023-12-20T12:29:39;7.90;99.90
10123;DHT22;5101;49.038;8.710;2023-12-20T12:32:06;7.90;99.90
10123;DHT22;5101;49.038;8.710;2023-12-20T12:34:32;7.90;99.90
10123;DHT22;5101;49.038;8.710;2023-12-20T12:36:59;7.90;99.90
10123;DHT22;5101;49.038;8.710;2023-12-20T12:39:24;7.90;99.90
10123;DHT22;5101;49.038;8.710;2023-12-20T12:41:51;8.00;99.90
10123;DHT22;5101;49.038;8.710;2023-12-20T12:44:16;8.00;99.90
10123;DHT22;5101;49.038;8.710;2023-12-20T12:46:43;8.00;99.90
10123;DHT22;5101;49.038;8.710;2023-12-20T12:49:09;8.00;99.90
10123;DHT22;5101;49.038;8.710;2023-12-20T12:51:35;8.10;99.90
10123;DHT22;5101;49.038;8.710;2023-12-20T12:54:00;8.20;99.90
10123;DHT22;5101;49.038;8.710;2023-12-20T12:56:26;8.10;99.90
10123;DHT22;5101;49.038;8.710;2023-12-20T12:58:51;8.10;99.90
10123;DHT22;5101;49.038;8.710;2023-12-20T13:01:17;8.00;99.90
10123;DHT22;5101;49.038;8.710;2023-12-20T13:03:43;8.00;99.90
10123;DHT22;5101;49.038;8.710;2023-12-20T13:06:08;8.10;99.90
10123;DHT22;5101;49.038;8.710;2023-12-20T13:08:34;8.10;99.90
10123;DHT22;5101;49.038;8.710;2023-12-20T13:11:00;8.00;99.90
10123;DHT22;5101;49.038;8.710;2023-12-20T13:13:26;8.00;99.90
10123;DHT22;5101;49.038;8.710;2023-12-20T13:15:52;7.90;99.90
10123;DHT22;5101;49.038;8.710;2023-12-20T13:18:20;7.90;99.90
10123;DHT22;5101;49.038;8.710;2023-12-20T13:20:46;7.80;99.90
10123;DHT22;5101;49.038;8.710;2023-12-20T13:23:12;7.80;99.90
10123;DHT22;5101;49.038;8.710;2023-12-20T13:25:37;7.80;99.90
10123;DHT22;5101;49.038;8.710;2023-12-20T13:28:03;7.70;99.90
10123;DHT22;5101;49.038;8.710;2023-12-20T13:30:29;7.70;99.90
10123;DHT22;5101;49.038;8.710;2023-12-20T13:32:54;7.70;99.90
10123;DHT22;5101;49.038;8.710;2023-12-20T13:35:20;7.60;99.90
10123;DHT22;5101;49.038;8.710;2023-12-20T13:37:46;7.60;99.90
10123;DHT22;5101;49.038;8.710;2023-12-20T13:40:11;7.60;99.90
10123;DHT22;5101;49.038;8.710;2023-12-20T13:42:38;7.50;99.90
10123;DHT22;5101;49.038;8.710;2023-12-20T13:45:04;7.60;99.90
10123;DHT22;5101;49.038;8.710;2023-12-20T13:47:30;7.50;99.90
10123;DHT22;5101;49.038;8.710;2023-12-20T13:49:56;7.40;99.90
10123;DHT22;5101;49.038;8.710;2023-12-20T13:52:21;7.40;99.90
10123;DHT22;5101;49.038;8.710;2023-12-20T13:54:47;7.40;99.90
10123;DHT22;5101;49.038;8.710;2023-12-20T13:57:13;7.40;99.90
10123;DHT22;5101;49.038;8.710;2023-12-20T13:59:38;7.40;99.90
10123;DHT22;5101;49.038;8.710;2023-12-20T14:02:04;7.30;99.90
10123;DHT22;5101;49.038;8.710;2023-12-20T14:04:29;7.40;99.90
10123;DHT22;5101;49.038;8.710;2023-12-20T14:06:56;7.40;99.90
10123;DHT22;5101;49.038;8.710;2023-12-20T14:09:22;7.40;99.90
10123;DHT22;5101;49.038;8.710;2023-12-20T14:11:47;7.40;99.90
10123;DHT22;5101;49.038;8.710;2023-12-20T14:14:13;7.30;99.90
10123;DHT22;5101;49.038;8.710;2023-12-20T14:16:38;7.30;99.90
10123;DHT22;5101;49.038;8.710;2023-12-20T14:19:04;7.40;99.90
10123;DHT22;5101;49.038;8.710;2023-12-20T14:21:33;7.30;99.90
10123;DHT22;5101;49.038;8.710;2023-12-20T14:23:58;7.30;99.90
10123;DHT22;5101;49.038;8.710;2023-12-20T14:26:24;7.30;99.90
10123;DHT22;5101;49.038;8.710;2023-12-20T14:28:50;7.20;99.90
10123;DHT22;5101;49.038;8.710;2023-12-20T14:31:15;7.30;99.90
10123;DHT22;5101;49.038;8.710;2023-12-20T14:33:41;7.30;99.90
10123;DHT22;5101;49.038;8.710;2023-12-20T14:36:07;7.30;99.90
10123;DHT22;5101;49.038;8.710;2023-12-20T14:38:34;7.30;99.90
10123;DHT22;5101;49.038;8.710;2023-12-20T14:40:59;7.30;99.90
10123;DHT22;5101;49.038;8.710;2023-12-20T14:43:26;7.30;99.90
10123;DHT22;5101;49.038;8.710;2023-12-20T14:45:55;7.20;99.90
10123;DHT22;5101;49.038;8.710;2023-12-20T14:48:20;7.20;99.90
10123;DHT22;5101;49.038;8.710;2023-12-20T14:50:46;7.10;99.90
10123;DHT22;5101;49.038;8.710;2023-12-20T14:53:14;7.10;99.90
10123;DHT22;5101;49.038;8.710;2023-12-20T14:55:41;7.10;99.90
10123;DHT22;5101;49.038;8.710;2023-12-20T14:58:07;7.10;99.90
10123;DHT22;5101;49.038;8.710;2023-12-20T15:00:32;7.10;99.90
10123;DHT22;5101;49.038;8.710;2023-12-20T15:02:59;7.10;99.90
10123;DHT22;5101;49.038;8.710;2023-12-20T15:05:24;7.10;99.90
10123;DHT22;5101;49.038;8.710;2023-12-20T15:07:50;7.00;99.90
10123;DHT22;5101;49.038;8.710;2023-12-20T15:10:15;7.00;99.90
10123;DHT22;5101;49.038;8.710;2023-12-20T15:12:42;7.00;99.90
10123;DHT22;5101;49.038;8.710;2023-12-20T15:15:08;7.00;99.90
10123;DHT22;5101;49.038;8.710;2023-12-20T15:17:35;7.20;99.90
10123;DHT22;5101;49.038;8.710;2023-12-20T15:20:01;7.10;99.90
10123;DHT22;5101;49.038;8.710;2023-12-20T15:22:27;7.00;99.90
10123;DHT22;5101;49.038;8.710;2023-12-20T15:24:53;7.00;99.90
10123;DHT22;5101;49.038;8.710;2023-12-20T15:27:20;7.00;99.90
10123;DHT22;5101;49.038;8.710;2023-12-20T15:29:45;6.90;99.90
10123;DHT22;5101;49.038;8.710;2023-12-20T15:32:11;7.00;99.90
10123;DHT22;5101;49.038;8.710;2023-12-20T15:34:36;6.90;99.90
10123;DHT22;5101;49.038;8.710;2023-12-20T15:37:02;6.90;99.90
10123;DHT22;5101;49.038;8.710;2023-12-20T15:39:27;6.80;99.90
10123;DHT22;5101;49.038;8.710;2023-12-20T15:41:53;6.80;99.90
10123;DHT22;5101;49.038;8.710;2023-12-20T15:44:19;6.70;99.90
10123;DHT22;5101;49.038;8.710;2023-12-20T15:46:44;6.70;99.90
10123;DHT22;5101;49.038;8.710;2023-12-20T15:49:10;6.70;99.90
10123;DHT22;5101;49.038;8.710;2023-12-20T15:51:38;6.70;99.90
10123;DHT22;5101;49.038;8.710;2023-12-20T15:54:04;6.60;99.90